Time,TemperatureF,DewpointF,PressureIn,WindDirection,WindDirectionDegrees,WindSpeedMPH,WindSpeedGustMPH,Humidity,HourlyPrecipIn,Conditions,Clouds,dailyrainin,SoftwareType,DateUTC
2013-03-23 00:00:00,33.4,12.8,28.85,East,92,0.0,0.0,42,0.00,,OVC055,0.00,VWS V14.01,2013-03-23 05:00:00,
2013-03-23 00:15:00,33.1,12.5,28.85,ENE,72,0.0,0.0,42,0.00,,OVC055,0.00,VWS V14.01,2013-03-23 05:15:00,
2013-03-23 00:30:00,33.1,12.5,28.85,ENE,72,0.0,0.0,42,0.00,,OVC055,0.00,VWS V14.01,2013-03-23 05:30:00,
2013-03-23 00:45:00,33.1,12.5,28.88,ENE,72,0.0,0.0,42,0.00,,OVC055,0.00,VWS V14.01,2013-03-23 05:45:00,
2013-03-23 01:00:00,33.1,13.0,28.88,ENE,72,0.0,0.0,43,0.00,,OVC055,0.00,VWS V14.01,2013-03-23 06:00:00,
2013-03-23 01:15:00,32.9,12.9,28.88,ENE,72,0.0,0.0,43,0.00,,OVC055,0.00,VWS V14.01,2013-03-23 06:15:00,
2013-03-23 01:30:00,32.9,12.9,28.88,ENE,72,0.0,0.0,43,0.00,,OVC055,0.00,VWS V14.01,2013-03-23 06:30:00,
2013-03-23 01:45:00,32.7,13.2,28.88,East,86,0.0,0.0,44,0.00,,OVC055,0.00,VWS V14.01,2013-03-23 06:45:00,
2013-03-23 02:00:00,32.4,13.4,28.88,ENE,68,0.0,0.0,45,0.00,,OVC055,0.00,VWS V14.01,2013-03-23 07:00:00,
2013-03-23 02:15:00,32.0,14.6,28.88,ENE,58,0.0,0.0,48,0.00,,OVC060,0.00,VWS V14.01,2013-03-23 07:15:00,
2013-03-23 02:30:00,32.2,16.1,28.88,ENE,59,0.0,0.0,51,0.00,,OVC060,0.00,VWS V14.01,2013-03-23 07:30:00,
2013-03-23 02:45:00,32.4,16.7,28.91,East,97,0.0,0.0,52,0.00,,OVC060,0.00,VWS V14.01,2013-03-23 07:45:00,
2013-03-23 03:00:00,32.2,17.0,28.88,ENE,68,0.0,0.0,53,0.00,,OVC060,0.00,VWS V14.01,2013-03-23 08:00:00,
2013-03-23 03:15:00,32.0,16.8,28.88,ENE,77,0.0,0.0,53,0.00,,OVC060,0.00,VWS V14.01,2013-03-23 08:15:00,
2013-03-23 03:30:00,32.0,17.2,28.88,East,96,0.0,0.0,54,0.00,,OVC060,0.00,VWS V14.01,2013-03-23 08:30:00,
2013-03-23 03:45:00,31.8,17.1,28.88,East,100,0.0,0.0,54,0.00,,OVC060,0.00,VWS V14.01,2013-03-23 08:45:00,
2013-03-23 04:00:00,31.6,16.9,28.85,ESE,116,0.0,0.0,54,0.00,,OVC060,0.00,VWS V14.01,2013-03-23 09:00:00,
2013-03-23 04:15:00,31.3,17.0,28.85,East,90,0.0,0.0,55,0.00,,OVC060,0.00,VWS V14.01,2013-03-23 09:15:00,
2013-03-23 04:30:00,31.3,17.0,28.85,ENE,77,0.0,0.0,55,0.00,,OVC060,0.00,VWS V14.01,2013-03-23 09:30:00,
2013-03-23 04:45:00,31.3,17.0,28.88,NE,55,0.0,0.0,55,0.00,,OVC060,0.00,VWS V14.01,2013-03-23 09:45:00,
2013-03-23 05:00:00,31.3,17.8,28.88,ENE,60,0.0,0.0,57,0.00,,OVC060,0.00,VWS V14.01,2013-03-23 10:00:00,
2013-03-23 05:15:00,31.3,17.8,28.88,East,94,0.0,0.0,57,0.00,,OVC060,0.00,VWS V14.01,2013-03-23 10:15:00,
2013-03-23 05:30:00,31.3,18.2,28.91,East,93,0.0,0.0,58,0.00,,OVC060,0.00,VWS V14.01,2013-03-23 10:30:00,
2013-03-23 05:45:00,31.5,18.4,28.91,East,93,0.0,0.0,58,0.00,,OVC060,0.00,VWS V14.01,2013-03-23 10:45:00,
2013-03-23 06:00:00,31.1,18.5,28.88,NE,54,0.0,0.0,59,0.00,,OVC060,0.00,VWS V14.01,2013-03-23 11:00:00,
2013-03-23 06:15:00,31.1,18.9,28.91,ENE,71,0.0,0.0,60,0.00,,OVC044,0.00,VWS V14.01,2013-03-23 11:15:00,
2013-03-23 06:30:00,31.3,19.0,28.91,ENE,71,0.0,0.0,60,0.00,,OVC044,0.00,VWS V14.01,2013-03-23 11:30:00,
2013-03-23 06:45:00,31.1,19.2,28.91,ENE,71,0.0,0.0,61,0.00,,OVC044,0.00,VWS V14.01,2013-03-23 11:45:00,
2013-03-23 07:00:00,31.1,19.6,28.91,East,86,0.0,0.0,62,0.00,,OVC044,0.00,VWS V14.01,2013-03-23 12:00:00,
2013-03-23 07:15:00,30.9,19.5,28.91,NE,53,0.0,0.0,62,0.00,,OVC060,0.00,VWS V14.01,2013-03-23 12:15:00,
2013-03-23 07:30:00,30.7,19.6,28.91,East,86,0.0,0.0,63,0.00,,OVC060,0.00,VWS V14.01,2013-03-23 12:30:00,
2013-03-23 07:45:00,30.7,20.0,28.91,NNE,28,0.0,8.1,64,0.00,,OVC060,0.00,VWS V14.01,2013-03-23 12:45:00,
2013-03-23 08:00:00,30.7,20.4,28.91,ESE,108,0.0,8.1,65,0.00,,OVC060,0.00,VWS V14.01,2013-03-23 13:00:00,
2013-03-23 08:15:00,31.1,21.1,28.91,East,86,0.0,10.7,66,0.00,,OVC080,0.00,VWS V14.01,2013-03-23 13:15:00,
2013-03-23 08:30:00,31.5,20.3,28.91,SE,129,0.0,12.1,63,0.00,,OVC080,0.00,VWS V14.01,2013-03-23 13:30:00,
2013-03-23 08:45:00,32.2,20.6,28.91,ENE,70,0.0,0.0,62,0.00,,OVC080,0.00,VWS V14.01,2013-03-23 13:45:00,
2013-03-23 09:00:00,32.7,20.4,28.91,ENE,73,0.0,0.0,60,0.00,,OVC080,0.00,VWS V14.01,2013-03-23 14:00:00,
2013-03-23 09:15:00,32.9,19.4,28.91,NE,47,0.0,8.1,57,0.00,,BKN110,0.00,VWS V14.01,2013-03-23 14:15:00,
2013-03-23 09:30:00,34.0,19.5,28.91,East,94,0.0,0.0,55,0.00,,BKN110,0.00,VWS V14.01,2013-03-23 14:30:00,
2013-03-23 09:45:00,34.7,18.9,28.94,East,84,0.0,0.0,52,0.00,,BKN110,0.00,VWS V14.01,2013-03-23 14:45:00,
2013-03-23 10:00:00,34.5,18.3,28.94,NE,42,0.0,0.0,51,0.00,,BKN110,0.00,VWS V14.01,2013-03-23 15:00:00,
2013-03-23 10:15:00,34.9,18.6,28.94,NE,55,0.0,0.0,51,0.00,,OVC100,0.00,VWS V14.01,2013-03-23 15:15:00,
2013-03-23 10:30:00,35.8,18.0,28.94,East,99,0.0,0.0,48,0.00,,OVC100,0.00,VWS V14.01,2013-03-23 15:30:00,
2013-03-23 10:45:00,36.1,17.4,28.94,East,89,0.0,12.1,46,0.00,,OVC100,0.00,VWS V14.01,2013-03-23 15:45:00,
2013-03-23 11:00:00,36.9,18.0,28.94,ENE,74,0.0,0.0,46,0.00,,OVC100,0.00,VWS V14.01,2013-03-23 16:00:00,
2013-03-23 11:15:00,36.7,16.8,28.94,ENE,77,0.0,16.8,44,0.00,,OVC075,0.00,VWS V14.01,2013-03-23 16:15:00,
2013-03-23 11:30:00,38.1,17.1,28.94,ENE,70,0.0,23.5,42,0.00,,OVC075,0.00,VWS V14.01,2013-03-23 16:30:00,
2013-03-23 11:45:00,38.7,17.0,28.94,NE,55,0.0,16.8,41,0.00,,OVC075,0.00,VWS V14.01,2013-03-23 16:45:00,
2013-03-23 12:00:00,37.0,16.1,28.94,ESE,112,0.0,15.4,42,0.00,,OVC075,0.00,VWS V14.01,2013-03-23 17:00:00,
2013-03-23 12:15:00,39.6,17.8,28.94,ESE,111,0.0,14.1,41,0.00,,OVC070,0.00,VWS V14.01,2013-03-23 17:15:00,
2013-03-23 12:30:00,39.6,17.2,28.91,East,97,0.0,19.5,40,0.00,,OVC070,0.00,VWS V14.01,2013-03-23 17:30:00,
2013-03-23 12:45:00,40.1,17.1,28.91,East,100,0.0,16.8,39,0.00,,OVC070,0.00,VWS V14.01,2013-03-23 17:45:00,
2013-03-23 13:00:00,40.5,17.5,28.91,East,82,16.8,16.8,39,0.00,,OVC070,0.00,VWS V14.01,2013-03-23 18:00:00,
2013-03-23 13:15:00,40.3,17.3,28.91,NE,37,0.0,18.1,39,0.00,,OVC070,0.00,VWS V14.01,2013-03-23 18:15:00,
2013-03-23 13:30:00,40.3,16.7,28.91,NE,45,0.0,26.8,38,0.00,,OVC070,0.00,VWS V14.01,2013-03-23 18:30:00,
2013-03-23 13:45:00,40.1,17.1,28.91,ENE,78,0.0,24.8,39,0.00,,OVC070,0.00,VWS V14.01,2013-03-23 18:45:00,
2013-03-23 14:00:00,39.7,16.8,28.88,NE,54,0.0,22.1,39,0.00,,OVC070,0.00,VWS V14.01,2013-03-23 19:00:00,
2013-03-23 14:15:00,40.1,17.1,28.88,ESE,104,19.5,22.1,39,0.00,,OVC070,0.00,VWS V14.01,2013-03-23 19:15:00,
2013-03-23 14:30:00,38.7,16.4,28.88,ENE,62,0.0,29.5,40,0.00,,OVC070,0.00,VWS V14.01,2013-03-23 19:30:00,
2013-03-23 14:45:00,39.2,16.9,28.88,ESE,105,0.0,32.2,40,0.00,,OVC070,0.00,VWS V14.01,2013-03-23 19:45:00,
2013-03-23 15:00:00,39.2,17.5,28.88,ENE,74,0.0,28.2,41,0.00,,OVC070,0.00,VWS V14.01,2013-03-23 20:00:00,
2013-03-23 15:15:00,38.5,17.4,28.88,ENE,65,12.1,16.8,42,0.00,,,0.00,VWS V14.01,2013-03-23 20:15:00,
2013-03-23 15:30:00,36.3,19.5,28.88,NE,40,0.0,22.1,50,0.00,,,0.00,VWS V14.01,2013-03-23 20:30:00,
2013-03-23 15:45:00,36.1,20.2,28.88,NNE,31,18.1,18.1,52,0.00,,,0.00,VWS V14.01,2013-03-23 20:45:00,
2013-03-23 16:00:00,35.6,21.5,28.88,ENE,63,0.0,18.1,56,0.00,,,0.00,VWS V14.01,2013-03-23 21:00:00,
2013-03-23 16:15:00,33.6,23.1,28.88,ENE,59,9.4,15.4,65,0.00,,,0.00,VWS V14.01,2013-03-23 21:15:00,
2013-03-23 16:30:00,33.1,25.0,28.88,East,83,0.0,23.5,72,0.00,,,0.00,VWS V14.01,2013-03-23 21:30:00,
2013-03-23 16:45:00,33.3,26.5,28.88,ENE,59,0.0,24.8,76,0.00,,,0.00,VWS V14.01,2013-03-23 21:45:00,
2013-03-23 17:00:00,32.9,26.5,28.88,ENE,63,8.1,26.8,77,0.00,,,0.00,VWS V14.01,2013-03-23 22:00:00,
2013-03-23 17:15:00,32.7,26.6,28.88,NE,35,0.0,19.5,78,0.00,,,0.00,VWS V14.01,2013-03-23 22:15:00,
2013-03-23 17:30:00,32.7,26.6,28.88,ENE,62,0.0,22.1,78,0.00,,,0.00,VWS V14.01,2013-03-23 22:30:00,
2013-03-23 17:45:00,32.5,26.5,28.88,NE,46,0.0,24.8,78,0.00,,,0.00,VWS V14.01,2013-03-23 22:45:00,
2013-03-23 18:00:00,31.8,26.1,28.88,East,81,9.4,15.4,79,0.00,,,0.00,VWS V14.01,2013-03-23 23:00:00,
2013-03-23 18:15:00,31.8,26.4,28.88,East,84,16.8,16.8,80,0.00,,,0.00,VWS V14.01,2013-03-23 23:15:00,
2013-03-23 18:30:00,31.8,26.7,28.88,NE,46,0.0,19.5,81,0.00,,,0.00,VWS V14.01,2013-03-23 23:30:00,
2013-03-23 18:45:00,31.3,26.4,28.88,East,92,0.0,16.8,82,0.00,,,0.00,VWS V14.01,2013-03-23 23:45:00,
2013-03-23 19:00:00,31.1,26.8,28.91,NE,52,0.0,26.8,84,0.00,,,0.00,VWS V14.01,2013-03-24 00:00:00,
2013-03-23 19:15:00,30.6,26.6,28.91,ENE,71,15.4,26.8,85,0.00,,,0.00,VWS V14.01,2013-03-24 00:15:00,
2013-03-23 19:30:00,30.4,26.4,28.91,ENE,67,0.0,23.5,85,0.00,,,0.00,VWS V14.01,2013-03-24 00:30:00,
2013-03-23 19:45:00,30.2,26.5,28.91,East,79,0.0,23.5,86,0.00,,,0.00,VWS V14.01,2013-03-24 00:45:00,
2013-03-23 20:00:00,30.0,26.6,28.91,NE,36,9.4,23.5,87,0.00,,,0.00,VWS V14.01,2013-03-24 01:00:00,
2013-03-23 20:15:00,29.8,26.5,28.91,ENE,66,9.4,23.5,87,0.00,,,0.00,VWS V14.01,2013-03-24 01:15:00,
2013-03-23 20:30:00,29.8,26.2,28.94,NE,54,0.0,19.5,86,0.00,,,0.00,VWS V14.01,2013-03-24 01:30:00,
2013-03-23 20:45:00,29.8,26.5,28.91,NE,53,0.0,19.5,87,0.00,,,0.00,VWS V14.01,2013-03-24 01:45:00,
2013-03-23 21:00:00,30.0,26.6,28.91,East,81,0.0,9.4,87,0.00,,,0.00,VWS V14.01,2013-03-24 02:00:00,
2013-03-23 21:15:00,30.0,26.6,28.91,NE,56,0.0,0.0,87,0.00,,,0.00,VWS V14.01,2013-03-24 02:15:00,
2013-03-23 21:30:00,29.8,26.5,28.91,East,85,0.0,10.7,87,0.00,,,0.00,VWS V14.01,2013-03-24 02:30:00,
2013-03-23 21:45:00,29.7,26.3,28.91,NE,43,0.0,16.8,87,0.00,,,0.00,VWS V14.01,2013-03-24 02:45:00,
2013-03-23 22:00:00,29.7,26.3,28.91,ENE,60,0.0,16.8,87,0.00,,,0.00,VWS V14.01,2013-03-24 03:00:00,
2013-03-23 22:15:00,29.7,26.3,28.91,NE,50,0.0,13.4,87,0.00,,,0.00,VWS V14.01,2013-03-24 03:15:00,
2013-03-23 22:30:00,29.5,26.1,28.91,East,97,0.0,10.7,87,0.00,,,0.00,VWS V14.01,2013-03-24 03:30:00,
2013-03-23 22:45:00,29.3,25.9,28.91,ENE,71,0.0,12.1,87,0.00,,,0.00,VWS V14.01,2013-03-24 03:45:00,
2013-03-23 23:00:00,29.3,25.9,28.91,ENE,72,0.0,12.1,87,0.00,,,0.00,VWS V14.01,2013-03-24 04:00:00,
2013-03-23 23:15:00,29.5,26.1,28.91,ENE,74,0.0,15.4,87,0.00,,,0.00,VWS V14.01,2013-03-24 04:15:00,
2013-03-23 23:30:00,29.3,25.6,28.91,East,100,0.0,9.4,86,0.00,,,0.00,VWS V14.01,2013-03-24 04:30:00,
2013-03-23 23:45:00,29.3,25.4,28.91,NNE,31,0.0,9.4,85,0.00,,,0.00,VWS V14.01,2013-03-24 04:45:00,